createdAt,value
2023-12-10T00:01:03.714Z,84.29
2023-12-10T00:03:30.560Z,84.82
2023-12-10T00:06:04.412Z,84.98
2023-12-10T00:08:38.011Z,85.07
2023-12-10T00:11:04.804Z,85.01
2023-12-10T00:13:31.327Z,85.20
2023-12-10T00:15:57.924Z,84.94
2023-12-10T00:18:24.698Z,84.58
2023-12-10T00:20:51.333Z,84.24
2023-12-10T00:23:17.870Z,84.90
2023-12-10T00:25:44.990Z,84.62
2023-12-10T00:28:11.641Z,84.53
2023-12-10T00:30:38.870Z,84.76
2023-12-10T00:33:05.524Z,84.33
2023-12-10T00:35:32.170Z,83.93
2023-12-10T00:37:58.747Z,84.05
2023-12-10T00:40:25.312Z,84.68
2023-12-10T00:42:52.491Z,84.05
2023-12-10T00:45:19.212Z,83.62
2023-12-10T00:47:45.834Z,84.14
2023-12-10T00:50:12.733Z,83.81
2023-12-10T00:52:39.743Z,83.65
2023-12-10T00:55:06.517Z,83.75
2023-12-10T00:57:33.941Z,83.58
2023-12-10T01:00:00.588Z,83.61
2023-12-10T01:02:27.517Z,83.81
2023-12-10T01:04:54.760Z,84.48
2023-12-10T01:07:21.363Z,84.37
2023-12-10T01:09:48.029Z,84.10
2023-12-10T01:12:14.590Z,84.17
2023-12-10T01:14:41.173Z,84.01
2023-12-10T01:17:09.342Z,83.74
2023-12-10T01:19:36.204Z,83.11
2023-12-10T01:22:04.654Z,83.48
2023-12-10T01:24:31.431Z,83.46
2023-12-10T01:26:57.976Z,83.40
2023-12-10T01:29:26.890Z,83.56
2023-12-10T01:31:53.470Z,83.62
2023-12-10T01:34:20.249Z,83.58
2023-12-10T01:36:47.030Z,83.25
2023-12-10T01:39:16.352Z,83.22
2023-12-10T01:41:43.046Z,83.29
2023-12-10T01:44:11.142Z,83.68
2023-12-10T01:46:37.942Z,82.84
2023-12-10T01:49:09.163Z,83.45
2023-12-10T01:51:37.896Z,82.73
2023-12-10T01:54:04.931Z,82.71
2023-12-10T01:56:31.822Z,82.77
2023-12-10T01:58:59.604Z,82.38
2023-12-10T02:01:27.314Z,83.01
2023-12-10T02:03:54.789Z,83.01
2023-12-10T02:06:23.447Z,83.00
2023-12-10T02:08:50.034Z,83.12
2023-12-10T02:11:17.238Z,82.81
2023-12-10T02:13:43.858Z,82.47
2023-12-10T02:16:10.465Z,82.36
2023-12-10T02:18:37.210Z,82.12
2023-12-10T02:21:04.108Z,82.57
2023-12-10T02:23:47.609Z,82.45
2023-12-10T02:26:14.247Z,82.20
2023-12-10T02:28:40.922Z,82.18
2023-12-10T02:31:08.097Z,82.18
2023-12-10T02:33:34.979Z,82.00
2023-12-10T02:36:01.674Z,82.14
2023-12-10T02:38:28.348Z,81.90
2023-12-10T02:40:55.495Z,81.92
2023-12-10T02:43:22.370Z,82.52
2023-12-10T02:45:49.113Z,81.69
2023-12-10T02:48:16.008Z,82.68
2023-12-10T02:50:42.706Z,82.89
2023-12-10T02:53:09.497Z,83.38
2023-12-10T02:55:36.048Z,83.16
2023-12-10T02:58:05.582Z,84.00
2023-12-10T03:00:32.831Z,83.83
2023-12-10T03:02:59.770Z,83.05
2023-12-10T03:05:26.413Z,82.90
2023-12-10T03:07:53.630Z,82.97
2023-12-10T03:10:21.229Z,82.95
2023-12-10T03:12:47.886Z,82.85
2023-12-10T03:15:14.555Z,82.66
2023-12-10T03:17:41.221Z,82.75
2023-12-10T03:20:10.549Z,83.00
2023-12-10T03:22:37.235Z,83.18
2023-12-10T03:25:04.832Z,83.11
2023-12-10T03:27:31.400Z,83.06
2023-12-10T03:29:58.206Z,83.08
2023-12-10T03:32:24.849Z,82.85
2023-12-10T03:34:51.478Z,83.30
2023-12-10T03:37:18.108Z,82.96
2023-12-10T03:39:44.743Z,82.31
2023-12-10T03:42:11.391Z,82.26
2023-12-10T03:44:37.927Z,82.34
2023-12-10T03:47:04.663Z,82.03
2023-12-10T03:49:31.392Z,82.79
2023-12-10T03:51:58.279Z,82.48
2023-12-10T03:54:25.518Z,82.43
2023-12-10T03:56:52.062Z,82.54
2023-12-10T03:59:18.677Z,83.02
2023-12-10T04:01:45.305Z,82.89
2023-12-10T04:04:15.002Z,82.65
2023-12-10T04:06:42.270Z,83.09
2023-12-10T04:09:09.543Z,83.07
2023-12-10T04:11:37.075Z,83.86
2023-12-10T04:14:04.517Z,83.27
2023-12-10T04:16:31.550Z,83.36
2023-12-10T04:18:58.543Z,82.52
2023-12-10T04:21:25.278Z,82.30
2023-12-10T04:23:52.109Z,81.82
2023-12-10T04:26:18.885Z,82.11
2023-12-10T04:28:45.928Z,81.76
2023-12-10T04:31:12.727Z,81.56
2023-12-10T04:33:39.516Z,82.32
2023-12-10T04:36:06.613Z,82.48
2023-12-10T04:38:33.452Z,82.42
2023-12-10T04:41:00.091Z,83.16
2023-12-10T04:43:26.669Z,82.72
2023-12-10T04:45:53.331Z,82.27
2023-12-10T04:48:20.094Z,82.19
2023-12-10T04:50:46.765Z,82.26
2023-12-10T04:53:13.290Z,82.01
2023-12-10T04:55:40.012Z,81.40
2023-12-10T04:58:06.549Z,81.55
2023-12-10T05:00:33.127Z,81.50
2023-12-10T05:02:59.739Z,80.85
2023-12-10T05:05:26.340Z,80.93
2023-12-10T05:07:52.908Z,80.62
2023-12-10T05:10:19.805Z,81.21
2023-12-10T05:12:46.882Z,81.42
2023-12-10T05:15:13.570Z,80.85
2023-12-10T05:17:40.350Z,81.45
2023-12-10T05:20:08.942Z,81.10
2023-12-10T05:22:35.607Z,81.00
2023-12-10T05:25:02.400Z,81.41
2023-12-10T05:27:33.694Z,81.43
2023-12-10T05:30:01.068Z,81.54
2023-12-10T05:32:29.166Z,80.89
2023-12-10T05:34:56.003Z,80.71
2023-12-10T05:37:22.770Z,80.76
2023-12-10T05:39:49.340Z,80.49
2023-12-10T05:42:15.963Z,80.24
2023-12-10T05:44:42.537Z,80.10
2023-12-10T05:47:09.047Z,80.07
2023-12-10T05:49:35.634Z,81.04
2023-12-10T05:52:02.269Z,80.60
2023-12-10T05:54:28.970Z,80.73
2023-12-10T05:56:55.814Z,80.60
2023-12-10T05:59:22.320Z,80.41
2023-12-10T06:01:49.052Z,79.89
2023-12-10T06:04:15.734Z,80.53
2023-12-10T06:06:42.366Z,81.61
2023-12-10T06:09:10.546Z,81.23
2023-12-10T06:11:37.135Z,81.09
2023-12-10T06:14:03.699Z,81.43
2023-12-10T06:16:30.461Z,81.34
2023-12-10T06:18:57.167Z,81.59
2023-12-10T06:21:23.896Z,81.27
2023-12-10T06:23:50.485Z,81.18
2023-12-10T06:26:16.986Z,81.08
2023-12-10T06:28:43.578Z,81.07
2023-12-10T06:31:10.730Z,80.61
2023-12-10T06:33:37.596Z,80.97
2023-12-10T06:36:04.848Z,80.24
2023-12-10T06:38:31.401Z,80.58
2023-12-10T06:40:57.960Z,79.67
2023-12-10T06:43:25.858Z,80.38
2023-12-10T06:45:52.875Z,79.92
2023-12-10T06:48:19.743Z,80.40
2023-12-10T06:50:46.359Z,81.10
2023-12-10T06:53:12.889Z,80.58
2023-12-10T06:55:39.437Z,80.96
2023-12-10T06:58:05.968Z,80.18
2023-12-10T07:00:32.660Z,80.44
2023-12-10T07:02:59.293Z,80.11
2023-12-10T07:05:25.881Z,80.39
2023-12-10T07:07:52.437Z,79.40
2023-12-10T07:10:18.982Z,79.15
2023-12-10T07:12:45.622Z,79.13
2023-12-10T07:15:12.294Z,79.02
2023-12-10T07:17:39.014Z,79.85
2023-12-10T07:20:06.380Z,79.70
2023-12-10T07:22:33.223Z,79.78
2023-12-10T07:25:00.434Z,80.19
2023-12-10T07:27:27.101Z,80.26
2023-12-10T07:29:53.712Z,79.84
2023-12-10T07:32:20.238Z,80.09
2023-12-10T07:34:46.821Z,79.73
2023-12-10T07:37:13.426Z,79.26
2023-12-10T07:39:40.421Z,79.93
2023-12-10T07:42:07.155Z,79.46
2023-12-10T07:44:34.525Z,79.31
2023-12-10T07:47:01.307Z,79.07
2023-12-10T07:49:28.065Z,79.30
2023-12-10T07:51:54.884Z,79.46
2023-12-10T07:54:21.664Z,79.43
2023-12-10T07:56:48.232Z,79.01
2023-12-10T07:59:14.834Z,78.77
2023-12-10T08:01:41.649Z,77.87
2023-12-10T08:04:08.314Z,78.30
2023-12-10T08:06:35.123Z,77.48
2023-12-10T08:09:05.502Z,77.17
2023-12-10T08:11:32.823Z,78.03
2023-12-10T08:14:00.506Z,77.94
2023-12-10T08:16:27.061Z,77.81
2023-12-10T08:18:53.663Z,78.32
2023-12-10T08:21:20.248Z,77.84
2023-12-10T08:23:46.937Z,78.24
2023-12-10T08:26:13.435Z,77.58
2023-12-10T08:28:40.030Z,77.86
2023-12-10T08:31:06.721Z,77.71
2023-12-10T08:33:33.396Z,77.76
2023-12-10T08:35:59.978Z,76.54
2023-12-10T08:38:26.484Z,77.13
2023-12-10T08:40:53.132Z,77.44
2023-12-10T08:43:21.659Z,76.77
2023-12-10T08:45:48.311Z,76.98
2023-12-10T08:48:15.567Z,76.39
2023-12-10T08:50:42.303Z,75.82
2023-12-10T08:53:08.853Z,75.81
2023-12-10T08:55:35.409Z,76.82
2023-12-10T08:58:01.972Z,75.80
2023-12-10T09:00:28.563Z,76.15
2023-12-10T09:02:55.172Z,75.83
2023-12-10T09:05:22.457Z,75.93
2023-12-10T09:07:49.049Z,74.76
2023-12-10T09:10:15.820Z,74.84
2023-12-10T09:12:42.955Z,75.27
2023-12-10T09:15:10.855Z,74.42
2023-12-10T09:17:37.472Z,73.86
2023-12-10T09:20:05.563Z,74.32
2023-12-10T09:22:32.345Z,74.13
2023-12-10T09:24:59.034Z,74.19
2023-12-10T09:27:25.599Z,74.72
2023-12-10T09:29:53.068Z,74.21
2023-12-10T09:32:21.901Z,74.51
2023-12-10T09:34:48.631Z,73.56
2023-12-10T09:37:15.541Z,72.81
2023-12-10T09:39:42.412Z,72.73
2023-12-10T09:42:09.058Z,72.70
2023-12-10T09:44:35.576Z,74.15
2023-12-10T09:47:02.601Z,73.62
2023-12-10T09:49:30.665Z,73.03
2023-12-10T09:51:57.448Z,73.37
2023-12-10T09:54:27.512Z,72.54
2023-12-10T09:56:56.013Z,73.38
2023-12-10T09:59:22.561Z,72.27
2023-12-10T10:01:54.528Z,72.50
2023-12-10T10:04:21.415Z,72.78
2023-12-10T10:06:48.126Z,72.62
2023-12-10T10:09:24.797Z,73.39
2023-12-10T10:11:58.969Z,72.97
2023-12-10T10:14:25.546Z,73.13
2023-12-10T10:16:52.135Z,74.33
2023-12-10T10:19:18.991Z,73.80
2023-12-10T10:21:46.229Z,74.27
2023-12-10T10:24:14.146Z,73.50
2023-12-10T10:26:41.724Z,74.01
2023-12-10T10:29:09.137Z,75.29
2023-12-10T10:31:35.955Z,74.63
2023-12-10T10:34:07.315Z,73.84
2023-12-10T10:36:34.228Z,73.96
2023-12-10T10:39:01.066Z,75.07
2023-12-10T10:41:30.113Z,74.89
2023-12-10T10:44:00.019Z,75.20
2023-12-10T10:46:27.231Z,75.79
2023-12-10T10:48:54.119Z,75.95
2023-12-10T10:51:26.602Z,74.79
2023-12-10T10:53:56.017Z,74.84
2023-12-10T10:56:23.495Z,76.81
2023-12-10T10:58:50.090Z,77.65
2023-12-10T11:01:43.105Z,77.91
2023-12-10T11:04:14.267Z,78.71
2023-12-10T11:06:42.101Z,79.26
2023-12-10T11:09:09.919Z,79.52
2023-12-10T11:11:40.741Z,79.60
2023-12-10T11:14:20.536Z,79.83
2023-12-10T11:16:51.092Z,80.46
2023-12-10T11:19:19.724Z,80.17
2023-12-10T11:21:46.427Z,80.80
2023-12-10T11:24:13.488Z,79.90
2023-12-10T11:26:40.244Z,80.04
2023-12-10T11:29:07.487Z,79.63
2023-12-10T11:31:35.819Z,79.86
2023-12-10T11:34:02.986Z,80.09
2023-12-10T11:36:36.611Z,79.59
2023-12-10T11:39:05.367Z,79.60
2023-12-10T11:41:32.550Z,80.15
2023-12-10T11:43:59.245Z,80.32
2023-12-10T11:46:31.456Z,80.18
2023-12-10T11:49:01.977Z,79.83
2023-12-10T11:51:28.639Z,80.08
2023-12-10T11:53:55.774Z,80.67
2023-12-10T11:56:22.715Z,81.33
2023-12-10T11:58:49.290Z,81.82
2023-12-10T12:01:17.969Z,81.60
2023-12-10T12:03:45.123Z,82.03
2023-12-10T12:06:11.899Z,82.57
2023-12-10T12:08:38.531Z,82.43
2023-12-10T12:11:05.264Z,82.68
2023-12-10T12:13:31.859Z,82.91
2023-12-10T12:15:58.550Z,83.33
2023-12-10T12:18:26.744Z,82.80
2023-12-10T12:20:53.619Z,82.68
2023-12-10T12:23:20.198Z,83.03
2023-12-10T12:25:47.439Z,83.42
2023-12-10T12:28:14.677Z,83.67
2023-12-10T12:30:41.410Z,84.20
2023-12-10T12:33:08.217Z,84.06
2023-12-10T12:35:34.903Z,83.23
2023-12-10T12:38:01.483Z,84.36
2023-12-10T12:40:28.118Z,84.57
2023-12-10T12:42:54.780Z,83.82
2023-12-10T12:45:21.804Z,83.30
2023-12-10T12:47:49.924Z,82.68
2023-12-10T12:50:17.620Z,82.23
2023-12-10T12:52:44.216Z,82.29
2023-12-10T12:55:10.851Z,82.86
2023-12-10T12:57:38.114Z,81.44
2023-12-10T13:00:06.689Z,82.67
2023-12-10T13:02:33.680Z,82.80
2023-12-10T13:05:00.560Z,82.64
2023-12-10T13:07:27.429Z,82.49
2023-12-10T13:09:54.214Z,83.02
2023-12-10T13:12:20.830Z,82.41
2023-12-10T13:14:47.926Z,82.56
2023-12-10T13:17:14.490Z,82.95
2023-12-10T13:19:41.824Z,82.92
2023-12-10T13:22:08.614Z,82.10
2023-12-10T13:24:35.330Z,82.39
2023-12-10T13:27:01.926Z,82.62
2023-12-10T13:29:28.510Z,82.07
2023-12-10T13:31:55.287Z,81.89
2023-12-10T13:34:22.236Z,82.67
2023-12-10T13:36:48.904Z,82.14
2023-12-10T13:39:15.417Z,82.93
2023-12-10T13:41:42.036Z,82.94
2023-12-10T13:44:08.558Z,82.69
2023-12-10T13:46:35.130Z,82.65
2023-12-10T13:49:02.645Z,83.18
2023-12-10T13:51:29.298Z,83.50
2023-12-10T13:53:55.969Z,83.08
2023-12-10T13:56:22.517Z,83.33
2023-12-10T13:58:49.071Z,83.58
2023-12-10T14:01:16.988Z,82.05
2023-12-10T14:03:43.835Z,81.49
2023-12-10T14:06:10.434Z,81.83
2023-12-10T14:08:37.019Z,81.38
2023-12-10T14:11:03.689Z,81.32
2023-12-10T14:13:30.236Z,81.67
2023-12-10T14:15:56.897Z,82.41
2023-12-10T14:18:23.990Z,82.54
2023-12-10T14:20:50.745Z,82.46
2023-12-10T14:23:17.293Z,82.87
2023-12-10T14:25:45.014Z,83.04
2023-12-10T14:28:12.490Z,83.12
2023-12-10T14:30:39.763Z,82.40
2023-12-10T14:33:06.687Z,83.17
2023-12-10T14:35:33.399Z,82.52
2023-12-10T14:37:59.975Z,82.89
2023-12-10T14:40:26.618Z,82.84
2023-12-10T14:42:53.274Z,83.14
2023-12-10T14:45:19.957Z,82.96
2023-12-10T14:47:46.778Z,82.52
2023-12-10T14:50:13.418Z,82.24
2023-12-10T14:52:39.965Z,82.54
2023-12-10T14:55:07.017Z,82.83
2023-12-10T14:57:33.787Z,82.76
2023-12-10T15:00:00.594Z,82.51
2023-12-10T15:02:27.217Z,82.64
2023-12-10T15:04:53.763Z,83.67
2023-12-10T15:07:20.383Z,83.71
2023-12-10T15:09:47.544Z,84.30
2023-12-10T15:12:14.330Z,84.24
2023-12-10T15:14:41.035Z,84.98
2023-12-10T15:17:08.564Z,84.28
2023-12-10T15:19:43.448Z,84.02
2023-12-10T15:22:12.429Z,83.91
2023-12-10T15:24:39.268Z,83.85
2023-12-10T15:27:05.857Z,83.89
2023-12-10T15:29:32.403Z,83.67
2023-12-10T15:31:58.989Z,83.80
2023-12-10T15:34:30.463Z,84.40
2023-12-10T15:36:57.554Z,84.25
2023-12-10T15:39:24.808Z,84.18
2023-12-10T15:41:51.476Z,84.44
2023-12-10T15:44:18.056Z,84.75
2023-12-10T15:46:45.092Z,84.99
2023-12-10T15:49:11.738Z,85.26
2023-12-10T15:51:38.488Z,85.10
2023-12-10T15:54:05.493Z,84.79
2023-12-10T15:56:32.099Z,84.89
2023-12-10T15:58:58.651Z,84.66
2023-12-10T16:01:26.114Z,84.45
2023-12-10T16:03:52.897Z,84.66
2023-12-10T16:06:19.727Z,83.92
2023-12-10T16:08:46.410Z,84.60
2023-12-10T16:11:13.021Z,84.60
2023-12-10T16:13:39.800Z,84.89
2023-12-10T16:16:06.745Z,85.16
2023-12-10T16:18:33.436Z,84.74
2023-12-10T16:21:02.441Z,85.39
2023-12-10T16:23:29.663Z,85.76
2023-12-10T16:25:56.442Z,85.79
2023-12-10T16:28:23.004Z,86.16
2023-12-10T16:30:49.665Z,86.72
2023-12-10T16:33:16.296Z,86.43
2023-12-10T16:35:42.795Z,86.65
2023-12-10T16:38:09.314Z,86.49
2023-12-10T16:40:35.839Z,86.75
2023-12-10T16:43:04.282Z,86.82
2023-12-10T16:45:30.940Z,87.37
2023-12-10T16:47:57.577Z,87.33
2023-12-10T16:50:24.210Z,87.70
2023-12-10T16:52:50.778Z,88.22
2023-12-10T16:55:17.392Z,88.04
2023-12-10T16:57:44.544Z,88.02
2023-12-10T17:00:12.972Z,87.84
2023-12-10T17:02:39.752Z,87.52
2023-12-10T17:05:06.781Z,87.92
2023-12-10T17:07:34.139Z,87.83
2023-12-10T17:10:01.091Z,87.94
2023-12-10T17:12:27.726Z,87.93
2023-12-10T17:14:54.324Z,88.00
2023-12-10T17:17:20.841Z,87.53
2023-12-10T17:19:47.566Z,87.04
2023-12-10T17:22:14.235Z,86.42
2023-12-10T17:24:41.794Z,86.40
2023-12-10T17:27:08.430Z,86.61
2023-12-10T17:29:35.005Z,87.01
2023-12-10T17:32:01.551Z,86.73
2023-12-10T17:34:28.074Z,86.12
2023-12-10T17:36:54.965Z,85.66
2023-12-10T17:39:21.485Z,85.07
2023-12-10T17:41:48.163Z,85.10
2023-12-10T17:44:17.970Z,84.54
2023-12-10T17:46:44.542Z,84.27
2023-12-10T17:49:11.337Z,84.42
2023-12-10T17:51:38.204Z,84.85
2023-12-10T17:54:07.310Z,86.16
2023-12-10T17:56:33.937Z,86.77
2023-12-10T17:59:01.652Z,87.34
2023-12-10T18:01:28.250Z,87.37
2023-12-10T18:03:55.012Z,87.02
2023-12-10T18:06:21.612Z,86.48
2023-12-10T18:08:48.218Z,86.20
2023-12-10T18:11:16.940Z,86.26
2023-12-10T18:13:43.594Z,85.76
2023-12-10T18:16:23.696Z,85.34
2023-12-10T18:18:50.518Z,84.87
2023-12-10T18:21:17.617Z,85.47
2023-12-10T18:23:47.824Z,84.81
2023-12-10T18:26:16.537Z,84.85
2023-12-10T18:28:46.270Z,84.80
2023-12-10T18:31:13.602Z,84.85
2023-12-10T18:33:40.586Z,84.20
2023-12-10T18:36:07.855Z,83.91
2023-12-10T18:38:34.531Z,84.00
2023-12-10T18:41:01.510Z,84.59
2023-12-10T18:43:28.995Z,84.23
2023-12-10T18:45:57.074Z,84.67
2023-12-10T18:48:23.933Z,85.20
2023-12-10T18:50:50.694Z,85.17
2023-12-10T18:53:17.360Z,84.39
2023-12-10T18:55:44.700Z,84.32
2023-12-10T18:58:11.679Z,84.77
2023-12-10T19:00:42.351Z,85.27
2023-12-10T19:03:10.345Z,85.57
2023-12-10T19:05:37.124Z,86.15
2023-12-10T19:08:04.032Z,86.68
2023-12-10T19:10:30.712Z,87.49
2023-12-10T19:12:57.400Z,87.59
2023-12-10T19:15:24.152Z,87.85
2023-12-10T19:17:50.795Z,87.85
2023-12-10T19:20:25.108Z,88.16
2023-12-10T19:22:52.528Z,88.92
2023-12-10T19:25:19.851Z,88.63
2023-12-10T19:27:46.455Z,88.36
2023-12-10T19:30:13.544Z,89.11
2023-12-10T19:32:40.153Z,89.58
2023-12-10T19:35:09.526Z,90.12
2023-12-10T19:37:38.217Z,91.27
2023-12-10T19:40:06.347Z,91.08
2023-12-10T19:42:33.250Z,91.14
2023-12-10T19:44:59.954Z,91.52
2023-12-10T19:47:26.985Z,91.20
2023-12-10T19:49:53.721Z,91.45
2023-12-10T19:52:20.442Z,91.04
2023-12-10T19:54:47.170Z,91.33
2023-12-10T19:57:18.225Z,91.20
2023-12-10T19:59:45.791Z,91.26
2023-12-10T20:02:12.512Z,91.02
2023-12-10T20:04:39.303Z,90.92
2023-12-10T20:07:06.145Z,90.00
2023-12-10T20:09:32.993Z,90.60
2023-12-10T20:11:59.630Z,90.38
2023-12-10T20:14:26.307Z,90.42
2023-12-10T20:16:54.547Z,90.51
2023-12-10T20:19:21.617Z,90.80
2023-12-10T20:21:48.338Z,90.99
2023-12-10T20:24:26.753Z,90.92
2023-12-10T20:26:57.670Z,91.33
2023-12-10T20:29:26.347Z,91.52
2023-12-10T20:31:52.892Z,91.27
2023-12-10T20:34:26.995Z,91.36
2023-12-10T20:36:59.391Z,91.37
2023-12-10T20:39:26.026Z,91.37
2023-12-10T20:41:52.574Z,91.15
2023-12-10T20:44:19.065Z,91.24
2023-12-10T20:46:45.637Z,91.80
2023-12-10T20:49:12.261Z,91.35
2023-12-10T20:51:38.852Z,91.39
2023-12-10T20:54:05.456Z,90.93
2023-12-10T20:56:31.943Z,91.10
2023-12-10T20:58:58.444Z,91.22
2023-12-10T21:01:28.215Z,91.30
2023-12-10T21:03:55.042Z,91.51
2023-12-10T21:06:21.859Z,91.76
2023-12-10T21:08:48.547Z,91.84
2023-12-10T21:11:15.291Z,92.35
2023-12-10T21:13:42.056Z,92.53
2023-12-10T21:16:11.283Z,92.91
2023-12-10T21:18:38.623Z,92.84
2023-12-10T21:21:06.316Z,92.52
2023-12-10T21:23:34.931Z,92.74
2023-12-10T21:26:03.956Z,92.90
2023-12-10T21:28:31.151Z,92.79
2023-12-10T21:30:58.227Z,92.62
2023-12-10T21:33:25.148Z,92.38
2023-12-10T21:35:52.206Z,92.84
2023-12-10T21:38:18.793Z,93.09
2023-12-10T21:40:45.301Z,92.50
2023-12-10T21:43:11.938Z,93.19
2023-12-10T21:45:38.522Z,93.00
2023-12-10T21:48:05.880Z,93.24
2023-12-10T21:50:32.485Z,93.21
2023-12-10T21:52:59.059Z,93.63
2023-12-10T21:55:25.634Z,93.59
2023-12-10T21:57:52.277Z,93.59
2023-12-10T22:00:19.424Z,93.05
2023-12-10T22:02:46.867Z,92.98
2023-12-10T22:05:13.538Z,92.72
2023-12-10T22:07:40.158Z,92.61
2023-12-10T22:10:10.277Z,92.06
2023-12-10T22:12:36.925Z,92.01
2023-12-10T22:15:04.674Z,91.39
2023-12-10T22:17:31.642Z,91.26
2023-12-10T22:19:59.096Z,91.59
2023-12-10T22:22:28.769Z,91.19
2023-12-10T22:24:57.042Z,91.18
2023-12-10T22:27:23.663Z,91.18
2023-12-10T22:29:51.867Z,91.36
2023-12-10T22:32:18.468Z,91.16
2023-12-10T22:34:45.124Z,90.54
2023-12-10T22:37:11.885Z,91.06
2023-12-10T22:39:38.481Z,90.79
2023-12-10T22:42:05.637Z,90.83
2023-12-10T22:44:32.197Z,90.05
2023-12-10T22:46:58.705Z,90.02
2023-12-10T22:49:25.306Z,89.74
2023-12-10T22:51:53.310Z,89.59
2023-12-10T22:54:19.912Z,89.47
2023-12-10T22:56:46.544Z,89.29
2023-12-10T22:59:13.198Z,89.31
2023-12-10T23:01:39.831Z,88.40
2023-12-10T23:04:07.356Z,88.80
2023-12-10T23:06:34.117Z,88.82
2023-12-10T23:09:00.713Z,88.42
2023-12-10T23:11:27.297Z,87.90
2023-12-10T23:13:53.821Z,87.19
2023-12-10T23:16:20.364Z,87.15
2023-12-10T23:18:47.037Z,87.12
2023-12-10T23:21:13.575Z,87.72
2023-12-10T23:23:40.704Z,87.07
2023-12-10T23:26:09.977Z,86.33
2023-12-10T23:28:36.530Z,85.29
2023-12-10T23:31:03.395Z,85.20
2023-12-10T23:33:30.240Z,85.82
2023-12-10T23:35:57.151Z,85.83
2023-12-10T23:38:23.642Z,86.21
2023-12-10T23:40:50.156Z,85.97
2023-12-10T23:43:16.715Z,85.50
2023-12-10T23:45:43.248Z,85.40
2023-12-10T23:48:09.893Z,85.32
2023-12-10T23:50:36.534Z,85.43
2023-12-10T23:53:03.163Z,84.96
2023-12-10T23:55:29.722Z,85.35
2023-12-10T23:57:56.308Z,85.31
